createdAt,value
2022-08-24T00:00:52.818Z,0.00
2022-08-24T00:01:53.206Z,0.00
2022-08-24T00:02:53.576Z,0.00
2022-08-24T00:03:55.470Z,0.00
2022-08-24T00:04:54.128Z,0.00
2022-08-24T00:05:54.448Z,0.00
2022-08-24T00:06:54.778Z,0.00
2022-08-24T00:07:55.118Z,0.00
2022-08-24T00:08:55.446Z,0.00
2022-08-24T00:09:55.791Z,0.00
2022-08-24T00:10:56.129Z,0.00
2022-08-24T00:11:56.442Z,0.00
2022-08-24T00:12:56.790Z,0.00
2022-08-24T00:13:57.110Z,0.00
2022-08-24T00:14:57.435Z,0.00
2022-08-24T00:15:57.761Z,0.00
2022-08-24T00:16:58.150Z,0.00
2022-08-24T00:17:58.414Z,0.00
2022-08-24T00:18:58.743Z,0.00
2022-08-24T00:19:59.064Z,0.00
2022-08-24T00:20:59.406Z,0.00
2022-08-24T00:21:59.735Z,0.00
2022-08-24T00:23:00.077Z,0.00
2022-08-24T00:24:00.398Z,0.00
2022-08-24T00:25:00.671Z,0.00
2022-08-24T00:26:00.998Z,0.00
2022-08-24T00:27:01.338Z,0.00
2022-08-24T00:28:01.805Z,0.00
2022-08-24T00:29:06.794Z,0.00
2022-08-24T00:30:03.268Z,0.00
2022-08-24T00:31:02.548Z,0.00
2022-08-24T00:32:02.921Z,0.00
2022-08-24T00:33:03.135Z,0.00
2022-08-24T00:34:03.456Z,0.00
2022-08-24T00:35:03.780Z,0.00
2022-08-24T00:36:05.025Z,0.00
2022-08-24T00:37:04.440Z,0.00
2022-08-24T00:38:05.133Z,0.00
2022-08-24T00:39:05.099Z,0.00
2022-08-24T00:40:05.487Z,0.00
2022-08-24T00:41:05.715Z,0.00
2022-08-24T00:42:06.040Z,0.00
2022-08-24T00:43:06.385Z,0.00
2022-08-24T00:44:06.697Z,0.00
2022-08-24T00:45:07.024Z,0.00
2022-08-24T00:46:07.431Z,0.00
2022-08-24T00:47:07.645Z,0.00
2022-08-24T00:48:08.003Z,0.00
2022-08-24T00:49:08.226Z,0.00
2022-08-24T00:50:08.536Z,0.00
2022-08-24T00:51:08.878Z,0.00
2022-08-24T00:52:09.155Z,0.00
2022-08-24T00:53:09.498Z,0.00
2022-08-24T00:54:09.825Z,0.00
2022-08-24T00:55:10.156Z,0.00
2022-08-24T00:56:10.494Z,0.00
2022-08-24T00:57:10.820Z,0.00
2022-08-24T00:58:17.005Z,0.00
2022-08-24T00:59:12.480Z,0.00
2022-08-24T01:00:11.749Z,0.00
2022-08-24T01:01:12.144Z,0.00
2022-08-24T01:02:15.620Z,0.00
2022-08-24T01:03:12.621Z,0.00
2022-08-24T01:04:12.942Z,0.00
2022-08-24T01:05:13.291Z,0.00
2022-08-24T01:06:13.611Z,0.00
2022-08-24T01:07:13.942Z,0.00
2022-08-24T01:08:14.292Z,0.00
2022-08-24T01:09:14.506Z,0.00
2022-08-24T01:10:14.805Z,0.00
2022-08-24T01:11:15.103Z,0.00
2022-08-24T01:12:15.442Z,0.00
2022-08-24T01:13:15.809Z,0.00
2022-08-24T01:14:16.004Z,0.00
2022-08-24T01:15:16.344Z,0.00
2022-08-24T01:16:16.733Z,0.00
2022-08-24T01:17:16.936Z,0.00
2022-08-24T01:18:17.288Z,0.00
2022-08-24T01:19:17.626Z,0.00
2022-08-24T01:20:17.956Z,0.00
2022-08-24T01:21:18.286Z,0.00
2022-08-24T01:22:18.609Z,0.00
2022-08-24T01:23:18.971Z,0.00
2022-08-24T01:24:19.171Z,0.00
2022-08-24T01:25:19.509Z,0.00
2022-08-24T01:26:19.779Z,0.00
2022-08-24T01:27:23.907Z,0.00
2022-08-24T01:28:21.748Z,0.00
2022-08-24T01:29:23.728Z,0.00
2022-08-24T01:30:30.706Z,0.00
2022-08-24T01:31:22.377Z,0.00
2022-08-24T01:32:21.540Z,0.00
2022-08-24T01:33:21.883Z,0.00
2022-08-24T01:34:22.203Z,0.00
2022-08-24T01:35:22.530Z,0.00
2022-08-24T01:36:28.384Z,0.00
2022-08-24T01:37:24.187Z,0.00
2022-08-24T01:38:23.465Z,0.00
2022-08-24T01:39:23.783Z,0.00
2022-08-24T01:40:24.138Z,0.00
2022-08-24T01:41:28.382Z,0.00
2022-08-24T01:42:24.776Z,0.00
2022-08-24T01:43:25.127Z,0.00
2022-08-24T01:44:25.450Z,0.00
2022-08-24T01:45:25.776Z,0.00
2022-08-24T01:46:26.144Z,0.00
2022-08-24T01:47:26.365Z,0.00
2022-08-24T01:48:26.707Z,0.00
2022-08-24T01:49:27.030Z,0.00
2022-08-24T01:50:27.352Z,0.00
2022-08-24T01:51:27.680Z,0.00
2022-08-24T01:52:38.910Z,0.00
2022-08-24T01:53:29.320Z,0.00
2022-08-24T01:54:28.578Z,0.00
2022-08-24T01:55:28.911Z,0.00
2022-08-24T01:56:29.249Z,0.00
2022-08-24T01:57:29.474Z,0.00
2022-08-24T01:58:29.805Z,0.00
2022-08-24T01:59:30.129Z,0.00
2022-08-24T02:00:30.455Z,0.00
2022-08-24T02:01:30.814Z,0.00
2022-08-24T02:02:31.182Z,0.00
2022-08-24T02:03:31.435Z,0.00
2022-08-24T02:04:31.625Z,0.00
2022-08-24T02:05:31.945Z,0.00
2022-08-24T02:06:32.277Z,0.00
2022-08-24T02:07:32.617Z,0.00
2022-08-24T02:08:32.963Z,0.00
2022-08-24T02:09:33.276Z,0.00
2022-08-24T02:10:33.611Z,0.00
2022-08-24T02:11:33.937Z,0.00
2022-08-24T02:12:34.267Z,0.00
2022-08-24T02:13:34.607Z,0.00
2022-08-24T02:14:34.925Z,0.00
2022-08-24T02:15:35.312Z,0.00
2022-08-24T02:16:35.493Z,0.00
2022-08-24T02:17:35.828Z,0.00
2022-08-24T02:18:36.140Z,0.00
2022-08-24T02:19:36.472Z,0.00
2022-08-24T02:20:36.791Z,0.00
2022-08-24T02:21:37.122Z,0.00
2022-08-24T02:22:37.420Z,0.00
2022-08-24T02:23:37.740Z,0.00
2022-08-24T02:24:38.075Z,0.00
2022-08-24T02:25:38.399Z,0.00
2022-08-24T02:26:38.720Z,0.00
2022-08-24T02:27:39.054Z,0.00
2022-08-24T02:28:39.313Z,0.00
2022-08-24T02:29:39.647Z,0.00
2022-08-24T02:30:40.077Z,0.00
2022-08-24T02:31:40.309Z,0.00
2022-08-24T02:32:40.684Z,0.00
2022-08-24T02:33:40.892Z,0.00
2022-08-24T02:34:41.223Z,0.00
2022-08-24T02:35:41.556Z,0.00
2022-08-24T02:36:41.898Z,0.00
2022-08-24T02:37:43.512Z,0.00
2022-08-24T02:38:42.486Z,0.00
2022-08-24T02:39:42.852Z,0.00
2022-08-24T02:40:43.065Z,0.00
2022-08-24T02:41:43.388Z,0.00
2022-08-24T02:42:43.729Z,0.00
2022-08-24T02:43:44.059Z,0.00
2022-08-24T02:44:44.399Z,0.00
2022-08-24T02:45:49.596Z,0.00
2022-08-24T02:46:46.067Z,0.00
2022-08-24T02:47:45.349Z,0.00
2022-08-24T02:48:45.680Z,0.00
2022-08-24T02:49:45.991Z,0.00
2022-08-24T02:50:46.323Z,0.00
2022-08-24T02:51:46.641Z,0.00
2022-08-24T02:52:46.984Z,0.00
2022-08-24T02:53:47.304Z,0.00
2022-08-24T02:54:47.642Z,0.00
2022-08-24T02:55:47.958Z,0.00
2022-08-24T02:56:48.290Z,0.00
2022-08-24T02:57:48.630Z,0.00
2022-08-24T02:58:48.954Z,0.00
2022-08-24T02:59:49.285Z,0.00
2022-08-24T03:00:49.623Z,0.00
2022-08-24T03:01:50.335Z,0.00
2022-08-24T03:02:50.243Z,0.00
2022-08-24T03:03:50.464Z,0.00
2022-08-24T03:04:50.798Z,0.00
2022-08-24T03:05:51.129Z,0.00
2022-08-24T03:06:51.456Z,0.00
2022-08-24T03:07:52.384Z,0.00
2022-08-24T03:08:56.682Z,0.00
2022-08-24T03:09:52.339Z,0.00
2022-08-24T03:10:52.670Z,0.00
2022-08-24T03:11:53.015Z,0.00
2022-08-24T03:12:53.331Z,0.00
2022-08-24T03:15:10.112Z,0.00
2022-08-24T03:16:10.429Z,0.00
2022-08-24T03:17:10.692Z,0.00
2022-08-24T03:18:10.979Z,0.00
2022-08-24T03:19:11.184Z,0.00
2022-08-24T03:20:11.513Z,0.00
2022-08-24T03:21:11.941Z,0.00
2022-08-24T03:22:12.165Z,0.00
2022-08-24T03:23:12.535Z,0.00
2022-08-24T03:24:12.795Z,0.00
2022-08-24T03:25:13.013Z,12.00
2022-08-24T03:26:13.300Z,12.00
2022-08-24T03:27:13.514Z,12.00
2022-08-24T03:28:13.944Z,12.00
2022-08-24T03:29:14.147Z,12.00
2022-08-24T03:30:14.486Z,16.00
2022-08-24T03:31:14.895Z,4.00
2022-08-24T03:32:15.157Z,4.00
2022-08-24T03:33:15.409Z,4.00
2022-08-24T03:34:15.650Z,4.00
2022-08-24T03:35:15.860Z,8.00
2022-08-24T03:36:16.210Z,8.00
2022-08-24T03:37:16.542Z,8.00
2022-08-24T03:38:16.884Z,8.00
2022-08-24T03:39:17.233Z,12.00
2022-08-24T03:40:23.082Z,12.00
2022-08-24T03:41:18.750Z,20.00
2022-08-24T03:42:18.068Z,20.00
2022-08-24T03:43:18.355Z,20.00
2022-08-24T03:44:22.943Z,28.00
2022-08-24T03:45:18.943Z,28.00
2022-08-24T03:46:19.247Z,32.00
2022-08-24T03:47:19.503Z,36.00
2022-08-24T03:48:19.862Z,40.00
2022-08-24T03:49:20.086Z,44.00
2022-08-24T03:50:20.427Z,52.00
2022-08-24T03:51:20.787Z,56.00
2022-08-24T03:52:21.132Z,64.00
2022-08-24T03:53:21.398Z,72.00
2022-08-24T03:54:21.621Z,84.00
2022-08-24T03:55:21.968Z,96.00
2022-08-24T03:56:22.204Z,112.00
2022-08-24T03:57:22.552Z,128.00
2022-08-24T03:58:22.801Z,144.00
2022-08-24T03:59:23.170Z,156.00
2022-08-24T04:00:23.452Z,168.00
2022-08-24T04:01:23.755Z,184.00
2022-08-24T04:02:24.152Z,192.00
2022-08-24T04:03:24.401Z,200.00
2022-08-24T04:04:24.631Z,208.00
2022-08-24T04:05:24.876Z,220.00
2022-08-24T04:06:25.124Z,228.00
2022-08-24T04:07:25.394Z,236.00
2022-08-24T04:08:25.671Z,252.00
2022-08-24T04:09:25.923Z,260.00
2022-08-24T04:10:26.243Z,268.00
2022-08-24T04:11:26.499Z,272.00
2022-08-24T04:12:26.796Z,272.00
2022-08-24T04:13:27.085Z,276.00
2022-08-24T04:14:28.043Z,276.00
2022-08-24T04:15:27.615Z,276.00
2022-08-24T04:16:27.880Z,284.00
2022-08-24T04:17:28.127Z,288.00
2022-08-24T04:18:28.895Z,292.00
2022-08-24T04:19:28.667Z,308.00
2022-08-24T04:20:28.907Z,316.00
2022-08-24T04:21:29.178Z,324.00
2022-08-24T04:22:29.421Z,328.00
2022-08-24T04:23:47.236Z,344.00
2022-08-24T04:24:31.009Z,368.00
2022-08-24T04:25:30.272Z,396.00
2022-08-24T04:26:44.571Z,420.00
2022-08-24T04:27:31.868Z,432.00
2022-08-24T04:28:31.224Z,452.00
2022-08-24T04:29:31.472Z,468.00
2022-08-24T04:30:31.744Z,492.00
2022-08-24T04:31:32.102Z,552.00
2022-08-24T04:32:32.349Z,572.00
2022-08-24T04:33:32.614Z,648.00
2022-08-24T04:34:32.843Z,712.00
2022-08-24T04:35:33.093Z,776.00
2022-08-24T04:36:33.341Z,844.00
2022-08-24T04:37:33.665Z,920.00
2022-08-24T04:38:33.934Z,928.00
2022-08-24T04:39:34.235Z,928.00
2022-08-24T04:40:34.484Z,956.00
2022-08-24T04:41:34.808Z,1024.00
2022-08-24T04:42:35.128Z,1088.00
2022-08-24T04:43:35.404Z,1176.00
2022-08-24T04:44:35.709Z,1244.00
2022-08-24T04:45:36.120Z,1284.00
2022-08-24T04:46:36.254Z,1236.00
2022-08-24T04:47:36.558Z,1192.00
2022-08-24T04:48:36.831Z,1084.00
2022-08-24T04:49:37.091Z,1112.00
2022-08-24T04:50:37.370Z,1048.00
2022-08-24T04:51:37.635Z,1108.00
2022-08-24T04:52:37.922Z,1056.00
2022-08-24T04:53:38.235Z,1160.00
2022-08-24T04:54:38.480Z,1216.00
2022-08-24T04:55:38.734Z,1132.00
2022-08-24T04:56:39.007Z,1140.00
2022-08-24T04:57:39.284Z,1012.00
2022-08-24T04:58:39.531Z,1044.00
2022-08-24T04:59:39.899Z,1136.00
2022-08-24T05:00:40.240Z,1152.00
2022-08-24T05:01:40.691Z,1232.00
2022-08-24T05:02:44.677Z,1236.00
2022-08-24T05:03:41.227Z,1224.00
2022-08-24T05:04:41.375Z,1288.00
2022-08-24T05:05:41.667Z,1144.00
2022-08-24T05:06:41.918Z,1080.00
2022-08-24T05:07:42.198Z,1008.00
2022-08-24T05:08:42.470Z,960.00
2022-08-24T05:09:42.798Z,1024.00
2022-08-24T05:10:43.066Z,976.00
2022-08-24T05:11:49.613Z,1068.00
2022-08-24T05:12:44.683Z,1076.00
2022-08-24T05:13:43.994Z,1104.00
2022-08-24T05:14:44.252Z,1232.00
2022-08-24T05:15:44.492Z,1180.00
2022-08-24T05:16:45.737Z,1204.00
2022-08-24T05:17:50.954Z,1268.00
2022-08-24T05:18:46.353Z,1388.00
2022-08-24T05:19:45.683Z,1448.00
2022-08-24T05:20:45.944Z,1492.00
2022-08-24T05:21:46.278Z,1724.00
2022-08-24T05:22:46.631Z,1852.00
2022-08-24T05:23:46.758Z,2536.00
2022-08-24T05:24:47.383Z,2956.00
2022-08-24T05:25:47.355Z,2700.00
2022-08-24T05:26:47.644Z,2940.00
2022-08-24T05:27:47.909Z,2932.00
2022-08-24T05:28:48.218Z,2696.00
2022-08-24T05:29:48.497Z,2464.00
2022-08-24T05:30:51.055Z,2276.00
2022-08-24T05:31:49.181Z,2136.00
2022-08-24T05:32:50.369Z,1868.00
2022-08-24T05:33:49.681Z,1944.00
2022-08-24T05:34:49.934Z,2076.00
2022-08-24T05:35:50.197Z,2100.00
2022-08-24T05:36:50.459Z,1868.00
2022-08-24T05:37:50.740Z,1812.00
2022-08-24T05:38:51.023Z,1684.00
2022-08-24T05:39:51.802Z,1772.00
2022-08-24T05:40:51.543Z,1668.00
2022-08-24T05:41:51.822Z,1520.00
2022-08-24T05:42:52.082Z,1444.00
2022-08-24T05:43:52.323Z,1460.00
2022-08-24T05:44:52.585Z,1580.00
2022-08-24T05:45:52.858Z,1528.00
2022-08-24T05:46:53.194Z,1496.00
2022-08-24T05:47:53.476Z,1660.00
2022-08-24T05:48:53.721Z,1828.00
2022-08-24T05:49:53.976Z,1816.00
2022-08-24T05:50:54.257Z,1844.00
2022-08-24T05:51:54.527Z,2040.00
2022-08-24T05:52:54.798Z,2256.00
2022-08-24T05:53:55.064Z,2104.00
2022-08-24T05:54:55.319Z,2044.00
2022-08-24T05:55:55.579Z,1852.00
2022-08-24T05:56:55.839Z,1996.00
2022-08-24T05:57:56.109Z,2192.00
2022-08-24T05:58:56.360Z,2020.00
2022-08-24T05:59:56.612Z,2012.00
2022-08-24T06:00:56.871Z,2048.00
2022-08-24T06:01:57.257Z,2032.00
2022-08-24T06:02:57.558Z,2272.00
2022-08-24T06:03:57.874Z,2052.00
2022-08-24T06:04:58.130Z,1720.00
2022-08-24T06:05:58.541Z,1584.00
2022-08-24T06:06:58.592Z,1776.00
2022-08-24T06:07:58.964Z,1976.00
2022-08-24T06:08:59.111Z,1808.00
2022-08-24T06:10:14.733Z,1864.00
2022-08-24T06:11:00.706Z,1868.00
2022-08-24T06:12:00.036Z,1952.00
2022-08-24T06:13:00.396Z,1828.00
2022-08-24T06:14:00.538Z,1856.00
2022-08-24T06:15:00.785Z,1932.00
2022-08-24T06:16:20.346Z,2040.00
2022-08-24T06:17:02.506Z,1912.00
2022-08-24T06:18:01.670Z,1980.00
2022-08-24T06:19:01.911Z,2144.00
2022-08-24T06:20:02.189Z,2116.00
2022-08-24T06:21:02.438Z,2584.00
2022-08-24T06:22:02.694Z,3056.00
2022-08-24T06:23:03.145Z,3412.00
2022-08-24T06:24:03.303Z,3004.00
2022-08-24T06:25:03.560Z,2712.00
2022-08-24T06:26:03.832Z,2656.00
2022-08-24T06:27:04.111Z,3052.00
2022-08-24T06:28:04.386Z,3376.00
2022-08-24T06:29:04.654Z,3160.00
2022-08-24T06:30:04.929Z,3164.00
2022-08-24T06:31:05.257Z,3192.00
2022-08-24T06:32:05.530Z,3068.00
2022-08-24T06:33:05.992Z,3020.00
2022-08-24T06:34:06.109Z,3004.00
2022-08-24T06:35:06.404Z,2884.00
2022-08-24T06:36:06.657Z,3184.00
2022-08-24T06:37:06.987Z,3208.00
2022-08-24T06:38:07.269Z,3132.00
2022-08-24T06:39:07.529Z,2952.00
2022-08-24T06:40:07.805Z,2824.00
2022-08-24T06:41:08.099Z,2944.00
2022-08-24T06:42:08.377Z,3084.00
2022-08-24T06:43:08.651Z,2924.00
2022-08-24T06:44:08.940Z,3068.00
2022-08-24T06:45:09.248Z,3404.00
2022-08-24T06:46:09.537Z,3504.00
2022-08-24T06:47:09.892Z,3356.00
2022-08-24T06:48:10.102Z,2932.00
2022-08-24T06:49:10.353Z,2432.00
2022-08-24T06:50:10.633Z,2260.00
2022-08-24T06:51:10.950Z,2128.00
2022-08-24T06:52:11.196Z,2148.00
2022-08-24T06:53:11.565Z,2380.00
2022-08-24T06:54:11.685Z,2392.00
2022-08-24T06:55:11.993Z,2320.00
2022-08-24T06:56:12.267Z,2316.00
2022-08-24T06:57:12.532Z,2696.00
2022-08-24T06:58:12.826Z,2700.00
2022-08-24T06:59:13.167Z,3048.00
2022-08-24T07:00:13.462Z,3384.00
2022-08-24T07:01:13.827Z,3320.00
2022-08-24T07:02:16.978Z,3368.00
2022-08-24T07:03:14.263Z,3072.00
2022-08-24T07:04:14.436Z,2716.00
2022-08-24T07:05:14.720Z,2592.00
2022-08-24T07:06:15.009Z,2628.00
2022-08-24T07:07:15.271Z,2388.00
2022-08-24T07:08:15.582Z,2096.00
2022-08-24T07:09:15.870Z,2200.00
2022-08-24T07:10:16.129Z,2324.00
2022-08-24T07:11:16.430Z,2264.00
2022-08-24T07:12:16.712Z,2240.00
2022-08-24T07:13:17.019Z,2132.00
2022-08-24T07:14:17.363Z,2048.00
2022-08-24T07:15:17.634Z,2136.00
2022-08-24T07:16:17.968Z,2284.00
2022-08-24T07:17:18.196Z,2412.00
2022-08-24T07:18:19.586Z,2556.00
2022-08-24T07:19:18.813Z,2432.00
2022-08-24T07:20:19.127Z,2552.00
2022-08-24T07:21:19.735Z,2504.00
2022-08-24T07:22:19.741Z,2452.00
2022-08-24T07:23:20.029Z,2260.00
2022-08-24T07:24:20.309Z,2072.00
2022-08-24T07:25:20.616Z,2072.00
2022-08-24T07:26:22.315Z,2112.00
2022-08-24T07:27:21.290Z,2256.00
2022-08-24T07:28:31.677Z,2492.00
2022-08-24T07:29:46.317Z,2636.00
2022-08-24T07:30:27.406Z,2720.00
2022-08-24T07:31:22.342Z,2820.00
2022-08-24T07:32:22.512Z,2932.00
2022-08-24T07:33:22.833Z,3048.00
2022-08-24T07:34:23.107Z,3120.00
2022-08-24T07:35:23.403Z,3120.00
2022-08-24T07:36:23.674Z,2820.00
2022-08-24T07:37:23.974Z,2532.00
2022-08-24T07:38:24.277Z,2436.00
2022-08-24T07:39:24.554Z,2300.00
2022-08-24T07:40:24.891Z,2328.00
2022-08-24T07:41:56.845Z,2148.00
2022-08-24T07:42:31.789Z,1956.00
2022-08-24T07:43:26.767Z,1904.00
2022-08-24T07:44:26.095Z,2004.00
2022-08-24T07:45:26.382Z,2000.00
2022-08-24T07:46:26.727Z,1948.00
2022-08-24T07:47:38.057Z,1892.00
2022-08-24T07:48:28.180Z,1832.00
2022-08-24T07:49:36.424Z,1836.00
2022-08-24T07:50:28.744Z,1928.00
2022-08-24T07:51:28.122Z,2040.00
2022-08-24T07:52:28.399Z,2028.00
2022-08-24T07:53:37.923Z,2028.00
2022-08-24T07:54:29.937Z,2052.00
2022-08-24T07:55:29.316Z,2104.00
2022-08-24T07:56:29.610Z,2312.00
2022-08-24T07:57:30.011Z,2444.00
2022-08-24T07:58:30.172Z,2392.00
2022-08-24T07:59:30.502Z,2248.00
2022-08-24T08:00:30.780Z,2244.00
2022-08-24T08:01:31.223Z,2268.00
2022-08-24T08:02:36.420Z,2044.00
2022-08-24T08:03:32.585Z,1956.00
2022-08-24T08:04:31.933Z,2068.00
2022-08-24T08:05:32.248Z,2180.00
2022-08-24T08:06:33.273Z,2260.00
2022-08-24T08:07:32.750Z,2472.00
2022-08-24T08:08:33.016Z,2644.00
2022-08-24T08:09:33.399Z,2884.00
2022-08-24T08:10:33.527Z,3056.00
2022-08-24T08:11:34.755Z,2952.00
2022-08-24T08:12:34.120Z,3216.00
2022-08-24T08:13:34.428Z,3416.00
2022-08-24T08:14:34.598Z,3320.00
2022-08-24T08:15:35.643Z,3072.00
2022-08-24T08:16:35.899Z,3168.00
2022-08-24T08:17:35.458Z,3164.00
2022-08-24T08:18:36.401Z,2756.00
2022-08-24T08:19:36.437Z,2872.00
2022-08-24T08:20:36.170Z,3612.00
2022-08-24T08:21:36.501Z,3864.00
2022-08-24T08:22:36.812Z,4044.00
2022-08-24T08:23:37.082Z,4432.00
2022-08-24T08:24:37.372Z,4780.00
2022-08-24T08:25:37.674Z,4972.00
2022-08-24T08:26:37.948Z,4668.00
2022-08-24T08:27:38.307Z,4292.00
2022-08-24T08:28:38.750Z,4156.00
2022-08-24T08:29:38.753Z,3600.00
2022-08-24T08:30:39.094Z,4408.00
2022-08-24T08:31:39.276Z,4260.00
2022-08-24T08:32:39.567Z,4868.00
2022-08-24T08:33:39.846Z,5876.00
2022-08-24T08:34:40.127Z,6376.00
2022-08-24T08:35:40.407Z,6688.00
2022-08-24T08:36:40.685Z,6668.00
2022-08-24T08:37:40.994Z,6280.00
2022-08-24T08:38:41.277Z,6056.00
2022-08-24T08:39:41.570Z,6544.00
2022-08-24T08:40:41.860Z,6840.00
2022-08-24T08:41:42.140Z,6616.00
2022-08-24T08:42:42.441Z,6252.00
2022-08-24T08:43:42.723Z,6076.00
2022-08-24T08:44:43.001Z,6028.00
2022-08-24T08:45:43.317Z,5756.00
2022-08-24T08:46:43.610Z,5540.00
2022-08-24T08:47:43.939Z,5656.00
2022-08-24T08:48:44.256Z,5696.00
2022-08-24T08:49:44.601Z,6104.00
2022-08-24T08:50:44.876Z,6440.00
2022-08-24T08:51:45.237Z,6824.00
2022-08-24T08:52:45.394Z,6484.00
2022-08-24T08:53:45.687Z,5936.00
2022-08-24T08:54:45.980Z,5808.00
2022-08-24T08:55:46.600Z,6180.00
2022-08-24T08:56:46.637Z,6148.00
2022-08-24T08:57:46.926Z,6172.00
2022-08-24T08:58:57.701Z,5804.00
2022-08-24T08:59:48.558Z,5792.00
2022-08-24T09:00:47.950Z,6584.00
2022-08-24T09:01:48.301Z,6792.00
2022-08-24T09:02:48.526Z,7736.00
2022-08-24T09:03:48.731Z,8364.00
2022-08-24T09:04:49.179Z,8448.00
2022-08-24T09:05:49.316Z,8416.00
2022-08-24T09:06:49.591Z,7720.00
2022-08-24T09:07:49.913Z,7288.00
2022-08-24T09:08:51.881Z,6608.00
2022-08-24T09:09:50.513Z,6444.00
2022-08-24T09:10:50.785Z,6796.00
2022-08-24T09:11:51.089Z,6384.00
2022-08-24T09:12:52.106Z,5976.00
2022-08-24T09:13:59.158Z,5572.00
2022-08-24T09:14:51.865Z,4992.00
2022-08-24T09:15:57.553Z,5100.00
2022-08-24T09:16:53.578Z,6724.00
2022-08-24T09:17:52.781Z,8392.00
2022-08-24T09:18:53.027Z,8944.00
2022-08-24T09:19:53.309Z,8752.00
2022-08-24T09:20:53.564Z,7980.00
2022-08-24T09:21:54.462Z,7504.00
2022-08-24T09:22:54.049Z,7428.00
2022-08-24T09:23:54.321Z,7052.00
2022-08-24T09:24:54.588Z,7124.00
2022-08-24T09:25:54.842Z,6652.00
2022-08-24T09:26:55.162Z,6920.00
2022-08-24T09:27:55.441Z,7492.00
2022-08-24T09:28:55.712Z,7768.00
2022-08-24T09:29:55.954Z,8128.00
2022-08-24T09:30:56.262Z,8060.00
2022-08-24T09:31:56.553Z,8704.00
2022-08-24T09:32:56.794Z,9088.00
2022-08-24T09:33:57.087Z,8312.00
2022-08-24T09:34:57.305Z,7968.00
2022-08-24T09:35:57.591Z,7548.00
2022-08-24T09:36:57.875Z,7788.00
2022-08-24T09:37:58.117Z,8732.00
2022-08-24T09:38:58.360Z,9416.00
2022-08-24T09:39:58.766Z,8596.00
2022-08-24T09:40:58.940Z,8548.00
2022-08-24T09:41:59.235Z,9528.00
2022-08-24T09:42:59.496Z,9940.00
2022-08-24T09:44:03.278Z,10560.00
2022-08-24T09:45:00.067Z,10344.00
2022-08-24T09:46:00.402Z,9716.00
2022-08-24T09:47:00.675Z,9208.00
2022-08-24T09:48:00.940Z,9080.00
2022-08-24T09:49:01.210Z,8952.00
2022-08-24T09:50:01.471Z,8796.00
2022-08-24T09:51:01.732Z,8404.00
2022-08-24T09:52:01.981Z,9028.00
2022-08-24T09:53:02.282Z,9288.00
2022-08-24T09:54:02.562Z,8456.00
2022-08-24T09:55:02.784Z,8284.00
2022-08-24T09:56:03.053Z,8640.00
2022-08-24T09:57:12.412Z,9708.00
2022-08-24T09:58:04.637Z,10360.00
2022-08-24T09:59:03.955Z,10364.00
2022-08-24T10:00:04.237Z,10736.00
2022-08-24T10:01:04.566Z,11596.00
2022-08-24T10:02:04.842Z,12108.00
2022-08-24T10:03:05.115Z,12232.00
2022-08-24T10:04:05.399Z,12060.00
2022-08-24T10:05:05.815Z,11736.00
2022-08-24T10:06:06.072Z,11384.00
2022-08-24T10:07:06.159Z,11240.00
2022-08-24T10:08:06.503Z,11116.00
2022-08-24T10:09:06.769Z,10872.00
2022-08-24T10:10:07.063Z,10676.00
2022-08-24T10:11:07.351Z,10712.00
2022-08-24T10:12:07.624Z,10460.00
2022-08-24T10:13:07.903Z,10144.00
2022-08-24T10:14:08.173Z,9856.00
2022-08-24T10:15:08.578Z,10528.00
2022-08-24T10:16:08.840Z,9952.00
2022-08-24T10:17:09.164Z,9248.00
2022-08-24T10:18:09.433Z,9148.00
2022-08-24T10:19:09.697Z,9184.00
2022-08-24T10:20:09.952Z,9564.00
2022-08-24T10:21:10.227Z,9416.00
2022-08-24T10:22:10.528Z,9216.00
2022-08-24T10:23:10.809Z,9108.00
2022-08-24T10:24:11.826Z,9108.00
2022-08-24T10:25:11.350Z,9212.00
2022-08-24T10:26:11.607Z,7672.00
2022-08-24T10:27:11.890Z,7024.00
2022-08-24T10:28:12.168Z,8200.00
2022-08-24T10:29:12.431Z,8448.00
2022-08-24T10:30:12.765Z,8280.00
2022-08-24T10:31:13.333Z,8828.00
2022-08-24T10:32:13.282Z,8884.00
2022-08-24T10:33:13.543Z,8392.00
2022-08-24T10:34:13.800Z,8092.00
2022-08-24T10:35:14.523Z,7896.00
2022-08-24T10:36:14.393Z,8032.00
2022-08-24T10:37:14.646Z,8208.00
2022-08-24T10:38:14.905Z,8112.00
2022-08-24T10:39:15.226Z,8092.00
2022-08-24T10:40:15.620Z,8508.00
2022-08-24T10:41:15.798Z,9204.00
2022-08-24T10:42:16.095Z,9376.00
2022-08-24T10:43:16.446Z,9208.00
2022-08-24T10:44:16.716Z,9816.00
2022-08-24T10:45:17.027Z,9616.00
2022-08-24T10:46:17.298Z,10128.00
2022-08-24T10:47:17.561Z,10336.00
2022-08-24T10:48:17.829Z,10980.00
2022-08-24T10:49:18.121Z,11260.00
2022-08-24T10:50:18.389Z,11292.00
2022-08-24T10:51:18.649Z,11384.00
2022-08-24T10:52:18.910Z,11236.00
2022-08-24T10:53:19.191Z,10728.00
2022-08-24T10:54:19.456Z,10124.00
2022-08-24T10:55:19.742Z,9744.00
2022-08-24T10:56:19.993Z,9816.00
2022-08-24T10:57:20.247Z,9888.00
2022-08-24T10:58:20.525Z,10156.00
2022-08-24T10:59:20.833Z,10280.00
2022-08-24T11:00:23.306Z,10308.00
2022-08-24T11:01:21.429Z,10196.00
2022-08-24T11:02:21.644Z,10116.00
2022-08-24T11:03:22.201Z,9732.00
2022-08-24T11:04:23.248Z,9492.00
2022-08-24T11:05:22.567Z,9588.00
2022-08-24T11:06:22.821Z,9216.00
2022-08-24T11:07:23.117Z,8640.00
2022-08-24T11:08:23.370Z,9004.00
2022-08-24T11:09:23.654Z,9580.00
2022-08-24T11:10:23.900Z,9492.00
2022-08-24T11:11:24.279Z,9672.00
2022-08-24T11:12:24.515Z,9620.00
2022-08-24T11:13:24.761Z,9740.00
2022-08-24T11:14:25.024Z,10032.00
2022-08-24T11:15:25.322Z,10144.00
2022-08-24T11:16:25.616Z,10224.00
2022-08-24T11:17:25.896Z,10200.00
2022-08-24T11:18:26.177Z,9952.00
2022-08-24T11:19:27.167Z,9900.00
2022-08-24T11:20:26.766Z,10056.00
2022-08-24T11:21:27.067Z,10332.00
2022-08-24T11:22:27.326Z,10620.00
2022-08-24T11:23:31.577Z,10920.00
2022-08-24T11:24:27.918Z,11260.00
2022-08-24T11:25:28.178Z,11420.00
2022-08-24T11:26:28.429Z,11348.00
2022-08-24T11:27:28.711Z,11220.00
2022-08-24T11:28:28.972Z,11052.00
2022-08-24T11:29:29.270Z,10972.00
2022-08-24T11:30:29.540Z,10960.00
2022-08-24T11:31:33.819Z,10972.00
2022-08-24T11:32:31.141Z,10988.00
2022-08-24T11:33:30.463Z,11088.00
2022-08-24T11:34:30.741Z,11268.00
2022-08-24T11:35:31.822Z,11284.00
2022-08-24T11:36:31.311Z,11124.00
2022-08-24T11:37:32.333Z,10836.00
2022-08-24T11:38:31.833Z,10540.00
2022-08-24T11:39:32.165Z,10164.00
2022-08-24T11:40:32.435Z,10100.00
2022-08-24T11:41:32.706Z,10064.00
2022-08-24T11:42:32.970Z,10020.00
2022-08-24T11:43:34.027Z,10228.00
2022-08-24T11:44:33.487Z,10516.00
2022-08-24T11:45:33.750Z,10516.00
2022-08-24T11:46:34.116Z,10588.00
2022-08-24T11:47:34.262Z,10516.00
2022-08-24T11:48:34.532Z,10288.00
2022-08-24T11:49:34.820Z,10176.00
2022-08-24T11:50:35.081Z,10192.00
2022-08-24T11:51:35.363Z,10168.00
2022-08-24T11:52:35.631Z,10272.00
2022-08-24T11:54:36.155Z,10288.00
2022-08-24T11:55:43.987Z,10356.00
2022-08-24T11:56:37.756Z,10384.00
2022-08-24T11:57:37.084Z,10440.00
2022-08-24T11:58:37.370Z,10556.00
2022-08-24T11:59:37.645Z,10588.00
2022-08-24T12:00:37.903Z,10596.00
2022-08-24T12:01:44.533Z,10568.00
2022-08-24T12:02:39.613Z,10588.00
2022-08-24T12:03:38.834Z,10664.00
2022-08-24T12:04:39.090Z,10768.00
2022-08-24T12:05:39.357Z,10720.00
2022-08-24T12:06:39.619Z,10564.00
2022-08-24T12:07:40.709Z,10456.00
2022-08-24T12:08:40.165Z,10588.00
2022-08-24T12:09:40.419Z,10468.00
2022-08-24T12:10:40.699Z,10540.00
2022-08-24T12:11:40.959Z,10540.00
2022-08-24T12:12:41.227Z,10376.00
2022-08-24T12:13:41.493Z,10280.00
2022-08-24T12:14:41.750Z,10088.00
2022-08-24T12:15:42.785Z,9940.00
2022-08-24T12:16:42.316Z,9864.00
2022-08-24T12:17:42.583Z,9624.00
2022-08-24T12:18:42.834Z,9536.00
2022-08-24T12:19:43.087Z,9420.00
2022-08-24T12:20:43.346Z,9284.00
2022-08-24T12:21:43.625Z,9148.00
2022-08-24T12:22:43.885Z,9036.00
2022-08-24T12:23:44.165Z,8948.00
2022-08-24T12:24:44.410Z,8808.00
2022-08-24T12:25:44.667Z,8632.00
2022-08-24T12:26:44.918Z,8380.00
2022-08-24T12:27:45.171Z,8036.00
2022-08-24T12:28:45.444Z,7672.00
2022-08-24T12:29:45.689Z,7344.00
2022-08-24T12:30:45.930Z,7080.00